Time;durP1;ratioP1;P1;durP2;ratioP2;P2;SDS_P1;SDS_P2;PMS_P1;PMS_P2;Temp;Humidity;BMP_temperature;BMP_pressure;BME280_temperature;BME280_humidity;BME280_pressure;Samples;Min_cycle;Max_cycle;Signal;HPM_P1;HPM_P2
2021/01/10 00:02:09;;;;;;;;;;;;;;;-0.88;91.37;102327.38;4999799;28;1890;-82
2021/01/10 00:04:34;;;;;;;;;;;;;;;-0.86;91.29;102325.25;4998337;28;1511;-82
2021/01/10 00:07:00;;;;;;;;;;;;;;;-0.86;91.13;102327.13;5000069;28;1028;-83
2021/01/10 00:09:25;;;;;;;;;;;;;;;-0.84;91.01;102331.25;5000014;28;1445;-82
2021/01/10 00:11:50;;;;;;;;;;;;;;;-0.83;91.30;102324.78;5000363;28;1264;-82
2021/01/10 00:14:16;;;;;;;;;;;;;;;-0.82;91.43;102323.72;5000722;28;1837;-81
2021/01/10 00:16:41;;;;;;;;;;;;;;;-0.83;91.60;102326.66;5000307;28;929;-82
2021/01/10 00:19:06;;;;;;;;;;;;;;;-0.81;90.94;102324.56;4999989;28;1307;-82
2021/01/10 00:21:38;;;;;;;;;;;;;;;-0.82;91.04;102325.63;5000067;28;1898;-82
2021/01/10 00:24:06;;;;;;;;;;;;;;;-0.85;91.31;102321.50;5001138;28;805;-82
2021/01/10 00:26:35;;;;;;;;;;;;;;;-0.87;91.30;102317.34;5000743;28;879;-82
2021/01/10 00:29:01;;;;;;;;;;;;;;;-0.88;90.79;102321.94;5000230;28;1814;-81
2021/01/10 00:31:30;;;;;;;;;;;;;;;-0.91;91.33;102316.16;5000962;28;1263;-82
2021/01/10 00:33:55;;;;;;;;;;;;;;;-0.95;91.53;102326.63;5003693;28;845;-81
2021/01/10 00:36:21;;;;;;;;;;;;;;;-1.00;91.30;102321.06;5000467;28;1012;-81
2021/01/10 00:38:46;;;;;;;;;;;;;;;-1.07;91.84;102317.59;5000428;28;1429;-82
2021/01/10 00:41:11;;;;;;;;;;;;;;;-1.14;91.58;102326.66;5000552;28;1116;-82
2021/01/10 00:43:36;;;;;;;;;;;;;;;-1.16;91.53;102330.66;4998109;28;1894;-82
2021/01/10 00:46:02;;;;;;;;;;;;;;;-1.15;91.78;102324.19;4999651;28;837;-82
2021/01/10 00:48:27;;;;;;;;;;;;;;;-1.15;91.98;102326.91;4999269;28;1763;-82
2021/01/10 00:50:52;;;;;;;;;;;;;;;-1.15;91.83;102329.59;4999985;28;984;-81
2021/01/10 00:53:18;;;;;;;;;;;;;;;-1.14;92.24;102323.97;4998229;28;1325;-81
2021/01/10 00:55:43;;;;;;;;;;;;;;;-1.10;91.66;102321.63;4998377;28;963;-82
2021/01/10 00:58:09;;;;;;;;;;;;;;;-1.10;92.12;102320.78;4997783;28;1594;-82
2021/01/10 01:00:34;;;;;;;;;;;;;;;-1.13;92.04;102320.16;4998001;28;897;-82
2021/01/10 01:02:59;;;;;;;;;;;;;;;-1.14;92.30;102323.97;4998262;28;1910;-82
2021/01/10 01:05:25;;;;;;;;;;;;;;;-1.15;91.78;102316.88;4998960;28;1238;-81
2021/01/10 01:07:50;;;;;;;;;;;;;;;-1.16;92.34;102320.66;4997714;28;1415;-82
2021/01/10 01:10:16;;;;;;;;;;;;;;;-1.14;91.86;102323.13;4998218;28;897;-82
2021/01/10 01:12:41;;;;;;;;;;;;;;;-1.18;92.30;102317.34;4997826;28;1665;-81
2021/01/10 01:15:07;;;;;;;;;;;;;;;-1.25;92.02;102316.59;4996307;28;1381;-82
2021/01/10 01:17:32;;;;;;;;;;;;;;;-1.32;92.54;102321.25;4997251;28;1428;-81
2021/01/10 01:19:58;;;;;;;;;;;;;;;-1.44;92.50;102323.09;4998364;28;937;-81
2021/01/10 01:22:26;;;;;;;;;;;;;;;-1.48;92.75;102327.31;4997631;28;1976;-82
2021/01/10 01:24:52;;;;;;;;;;;;;;;-1.53;92.99;102327.97;4997987;28;1984;-82
2021/01/10 01:27:17;;;;;;;;;;;;;;;-1.55;92.76;102340.94;4996962;28;1318;-82
2021/01/10 01:29:42;;;;;;;;;;;;;;;-1.57;92.88;102341.16;4997797;28;984;-81
2021/01/10 01:32:07;;;;;;;;;;;;;;;-1.62;93.17;102351.03;4997580;28;905;-81
2021/01/10 01:34:33;;;;;;;;;;;;;;;-1.71;92.96;102343.19;4996553;28;1712;-82
2021/01/10 01:36:58;;;;;;;;;;;;;;;-1.79;93.12;102339.94;5000757;28;1261;-81
2021/01/10 01:39:23;;;;;;;;;;;;;;;-1.93;92.43;102337.34;5000383;28;1654;-81
2021/01/10 01:41:49;;;;;;;;;;;;;;;-1.96;92.52;102342.38;5001799;28;1871;-82
2021/01/10 01:44:14;;;;;;;;;;;;;;;-1.99;93.09;102343.69;5001434;28;779;-82
2021/01/10 01:46:39;;;;;;;;;;;;;;;-1.93;93.03;102345.47;5000180;28;1842;-82
2021/01/10 01:49:07;;;;;;;;;;;;;;;-1.77;93.77;102343.25;5000624;28;1338;-82
2021/01/10 01:51:34;;;;;;;;;;;;;;;-1.64;94.18;102340.41;5001370;28;869;-82
2021/01/10 01:53:59;;;;;;;;;;;;;;;-1.53;93.90;102347.75;5001912;28;1598;-82
2021/01/10 01:56:25;;;;;;;;;;;;;;;-1.44;93.92;102344.75;5002154;28;778;-82
2021/01/10 01:59:04;;;;;;;;;;;;;;;-1.36;94.06;102344.47;5002319;28;1334;-82
2021/01/10 02:01:33;;;;;;;;;;;;;;;-1.28;93.90;102344.16;5003236;28;1955;-82
2021/01/10 02:04:20;;;;;;;;;;;;;;;-1.22;93.97;102335.09;5003309;28;992;-82
2021/01/10 02:06:58;;;;;;;;;;;;;;;-1.18;93.39;102333.63;5002620;28;945;-82
2021/01/10 02:09:26;;;;;;;;;;;;;;;-1.15;93.28;102327.72;5001415;28;1502;-82
2021/01/10 02:11:53;;;;;;;;;;;;;;;-1.13;93.03;102327.50;5001875;28;988;-82
2021/01/10 02:14:23;;;;;;;;;;;;;;;-1.14;93.19;102321.25;5002555;28;857;-81
2021/01/10 02:16:48;;;;;;;;;;;;;;;-1.12;92.49;102315.59;5002497;28;885;-81
2021/01/10 02:19:35;;;;;;;;;;;;;;;-1.11;92.90;102317.22;5001187;28;1297;-82
2021/01/10 02:22:05;;;;;;;;;;;;;;;-1.12;92.82;102318.31;5002267;28;1969;-81
2021/01/10 02:24:34;;;;;;;;;;;;;;;-1.17;92.10;102316.28;5002683;28;865;-81
2021/01/10 02:27:03;;;;;;;;;;;;;;;-1.19;92.72;102321.09;5002527;28;1665;-82
2021/01/10 02:29:29;;;;;;;;;;;;;;;-1.19;92.32;102317.56;5002347;28;1071;-81
2021/01/10 02:31:57;;;;;;;;;;;;;;;-1.16;92.90;102319.81;5002781;28;1500;-82
2021/01/10 02:34:26;;;;;;;;;;;;;;;-1.13;92.13;102311.22;5002914;28;833;-82
2021/01/10 02:37:15;;;;;;;;;;;;;;;-1.13;92.09;102312.03;5002917;28;895;-81
2021/01/10 02:39:58;;;;;;;;;;;;;;;-1.14;91.81;102315.00;5003931;28;1685;-82
2021/01/10 02:42:39;;;;;;;;;;;;;;;-1.20;92.38;102313.19;5001194;28;1935;-82
2021/01/10 02:45:12;;;;;;;;;;;;;;;-1.22;91.86;102318.03;5002117;28;905;-81
2021/01/10 02:47:38;;;;;;;;;;;;;;;-1.22;92.46;102321.56;5000666;28;1682;-82
2021/01/10 02:50:05;;;;;;;;;;;;;;;-1.19;92.09;102315.69;5001719;28;1586;-82
2021/01/10 02:52:30;;;;;;;;;;;;;;;-1.13;92.40;102317.47;5000858;28;1987;-83
2021/01/10 02:54:56;;;;;;;;;;;;;;;-1.08;92.16;102322.22;5001974;28;913;-82
2021/01/10 02:57:30;;;;;;;;;;;;;;;-1.04;92.15;102320.72;5001239;28;1389;-82
2021/01/10 02:59:59;;;;;;;;;;;;;;;-1.02;91.50;102312.31;5002043;28;909;-82
2021/01/10 03:02:26;;;;;;;;;;;;;;;-1.01;91.62;102306.66;5001621;28;1959;-82
2021/01/10 03:04:52;;;;;;;;;;;;;;;-1.02;91.81;102305.03;5000803;28;1606;-82
2021/01/10 03:07:18;;;;;;;;;;;;;;;-1.00;91.70;102302.91;5000893;28;1661;-82
2021/01/10 03:09:44;;;;;;;;;;;;;;;-1.00;91.60;102302.09;5001398;28;850;-81
2021/01/10 03:12:25;;;;;;;;;;;;;;;-1.01;91.83;102295.00;5000499;28;1630;-82
2021/01/10 03:14:53;;;;;;;;;;;;;;;-1.00;91.43;102291.25;4998803;28;1457;-82
2021/01/10 03:17:26;;;;;;;;;;;;;;;-1.00;91.94;102283.13;4999866;28;1653;-82
2021/01/10 03:19:52;;;;;;;;;;;;;;;-0.98;91.35;102281.81;5000244;28;980;-81
2021/01/10 03:22:18;;;;;;;;;;;;;;;-0.95;91.68;102284.06;4999441;28;1966;-81
2021/01/10 03:24:44;;;;;;;;;;;;;;;-0.93;90.95;102283.84;4998681;28;1237;-82
2021/01/10 03:27:09;;;;;;;;;;;;;;;-0.91;91.40;102289.03;4999796;28;1401;-82
2021/01/10 03:29:34;;;;;;;;;;;;;;;-0.90;91.17;102288.81;5001172;28;1040;-82
2021/01/10 03:32:00;;;;;;;;;;;;;;;-0.91;91.04;102287.16;5001031;28;1654;-82
2021/01/10 03:34:26;;;;;;;;;;;;;;;-0.87;90.88;102290.22;5001252;28;1622;-81
2021/01/10 03:36:52;;;;;;;;;;;;;;;-0.88;90.88;102292.09;4999693;28;1449;-81
2021/01/10 03:39:17;;;;;;;;;;;;;;;-0.85;90.67;102297.09;4999945;28;1400;-82
2021/01/10 03:41:42;;;;;;;;;;;;;;;-0.84;90.83;102287.03;4999524;28;1867;-82
2021/01/10 03:44:08;;;;;;;;;;;;;;;-0.81;91.29;102289.31;4999698;28;1795;-82
2021/01/10 03:46:33;;;;;;;;;;;;;;;-0.81;90.73;102294.72;4999072;28;1418;-82
2021/01/10 03:48:58;;;;;;;;;;;;;;;-0.82;90.75;102293.06;4999366;28;1440;-82
2021/01/10 03:51:27;;;;;;;;;;;;;;;-0.84;90.97;102292.47;4999689;28;905;-81
2021/01/10 03:53:53;;;;;;;;;;;;;;;-0.86;90.97;102290.00;5000294;28;850;-82
2021/01/10 03:56:18;;;;;;;;;;;;;;;-0.85;90.64;102291.66;5000683;28;1518;-83
2021/01/10 03:58:44;;;;;;;;;;;;;;;-0.84;91.26;102289.75;4998100;28;1638;-82
2021/01/10 04:01:09;;;;;;;;;;;;;;;-0.84;90.73;102282.44;4999415;28;998;-82
2021/01/10 04:03:34;;;;;;;;;;;;;;;-0.84;91.01;102281.63;4999039;28;1965;-82
2021/01/10 04:05:59;;;;;;;;;;;;;;;-0.81;90.85;102281.16;4999073;28;979;-82
2021/01/10 04:08:25;;;;;;;;;;;;;;;-0.81;90.54;102292.84;4998501;28;1306;-82
2021/01/10 04:10:50;;;;;;;;;;;;;;;-0.80;90.97;102280.09;5000167;28;751;-82
2021/01/10 04:13:15;;;;;;;;;;;;;;;-0.81;91.01;102283.88;4999691;28;1064;-82
2021/01/10 04:15:40;;;;;;;;;;;;;;;-0.81;90.68;102283.88;5000045;28;973;-82
2021/01/10 04:18:06;;;;;;;;;;;;;;;-0.84;90.82;102271.59;4998696;28;1736;-81
2021/01/10 04:20:31;;;;;;;;;;;;;;;-0.90;91.04;102267.09;4999805;28;1074;-81
2021/01/10 04:22:56;;;;;;;;;;;;;;;-0.96;91.44;102262.59;4998968;28;1961;-81
2021/01/10 04:25:22;;;;;;;;;;;;;;;-0.99;91.62;102266.63;4998133;28;1042;-81
2021/01/10 04:27:47;;;;;;;;;;;;;;;-1.02;91.25;102256.22;4997294;28;1602;-82
2021/01/10 04:30:13;;;;;;;;;;;;;;;-1.04;91.87;102260.22;4996215;28;1641;-82
2021/01/10 04:32:38;;;;;;;;;;;;;;;-1.08;91.67;102257.13;4997704;28;1043;-81
2021/01/10 04:35:04;;;;;;;;;;;;;;;-1.13;92.44;102260.53;4998171;28;1762;-81
2021/01/10 04:37:30;;;;;;;;;;;;;;;-1.21;92.29;102260.88;4998312;28;1294;-81
2021/01/10 04:39:55;;;;;;;;;;;;;;;-1.27;91.94;102261.78;4997708;28;1055;-81
2021/01/10 04:42:22;;;;;;;;;;;;;;;-1.28;92.84;102265.56;4998171;28;1969;-82
2021/01/10 04:44:47;;;;;;;;;;;;;;;-1.23;92.98;102256.72;4998668;28;1610;-81
2021/01/10 04:47:13;;;;;;;;;;;;;;;-1.19;92.97;102266.06;4998019;28;1440;-82
2021/01/10 04:49:39;;;;;;;;;;;;;;;-1.14;92.65;102258.06;4999583;28;1066;-82
2021/01/10 04:52:06;;;;;;;;;;;;;;;-1.10;92.98;102264.69;4999118;28;1582;-82
2021/01/10 04:54:39;;;;;;;;;;;;;;;-1.11;92.88;102254.06;4999893;28;953;-82
2021/01/10 04:57:10;;;;;;;;;;;;;;;-1.13;92.83;102260.53;4998431;28;1413;-82
2021/01/10 04:59:35;;;;;;;;;;;;;;;-1.16;92.63;102258.31;4999072;28;1752;-82
2021/01/10 05:02:05;;;;;;;;;;;;;;;-1.22;92.86;102259.22;4998764;28;1867;-82
2021/01/10 05:04:30;;;;;;;;;;;;;;;-1.27;92.58;102250.94;4998847;28;996;-82
2021/01/10 05:06:58;;;;;;;;;;;;;;;-1.29;92.76;102257.66;4999526;28;1011;-81
2021/01/10 05:09:24;;;;;;;;;;;;;;;-1.24;93.42;102255.09;4998649;28;1341;-82
2021/01/10 05:11:50;;;;;;;;;;;;;;;-1.17;93.21;102255.81;5003072;28;1459;-82
2021/01/10 05:14:15;;;;;;;;;;;;;;;-1.09;93.03;102251.94;5002845;28;1603;-81
2021/01/10 05:16:43;;;;;;;;;;;;;;;-1.00;93.24;102251.38;5002831;28;766;-82
2021/01/10 05:19:09;;;;;;;;;;;;;;;-0.95;93.45;102251.53;5002358;28;1362;-81
2021/01/10 05:21:34;;;;;;;;;;;;;;;-0.93;93.11;102254.00;5003898;28;971;-82
2021/01/10 05:23:59;;;;;;;;;;;;;;;-0.93;92.55;102250.44;5002913;28;1272;-83
2021/01/10 05:26:36;;;;;;;;;;;;;;;-0.95;92.45;102253.41;5003142;28;2070;-82
2021/01/10 05:29:06;;;;;;;;;;;;;;;-0.89;92.90;102252.47;5004250;28;1338;-82
2021/01/10 05:31:39;;;;;;;;;;;;;;;-0.82;92.52;102255.09;5004877;28;1023;-82
2021/01/10 05:34:05;;;;;;;;;;;;;;;-0.78;92.65;102250.84;5002176;28;1715;-82
2021/01/10 05:36:35;;;;;;;;;;;;;;;-0.74;92.66;102253.91;5004141;28;1868;-81
2021/01/10 05:39:29;;;;;;;;;;;;;;;-0.72;91.99;102240.97;5003309;28;1661;-81
2021/01/10 05:42:00;;;;;;;;;;;;;;;-0.74;92.44;102248.47;5003702;28;1898;-82
2021/01/10 05:44:27;;;;;;;;;;;;;;;-0.84;92.36;102241.75;5003506;28;1508;-82
2021/01/10 05:47:06;;;;;;;;;;;;;;;-0.92;92.18;102241.28;5004596;28;1854;-81
2021/01/10 05:49:33;;;;;;;;;;;;;;;-0.97;92.74;102244.66;5004232;28;829;-82
2021/01/10 05:52:09;;;;;;;;;;;;;;;-1.00;92.93;102247.88;5004476;28;882;-81
2021/01/10 05:54:41;;;;;;;;;;;;;;;-0.98;93.17;102251.97;5007932;28;1269;-82
2021/01/10 05:57:09;;;;;;;;;;;;;;;-0.93;92.73;102242.31;5001915;28;1669;-83
2021/01/10 05:59:37;;;;;;;;;;;;;;;-0.89;92.65;102247.06;5002477;28;1594;-82
2021/01/10 06:02:04;;;;;;;;;;;;;;;-0.88;92.66;102235.16;5003097;28;1973;-82
2021/01/10 06:04:31;;;;;;;;;;;;;;;-0.98;92.92;102232.19;5002965;28;1852;-82
2021/01/10 06:06:57;;;;;;;;;;;;;;;-1.07;92.96;102237.13;5001381;28;1252;-82
2021/01/10 06:09:22;;;;;;;;;;;;;;;-1.08;93.02;102234.63;5000711;28;1287;-81
2021/01/10 06:11:48;;;;;;;;;;;;;;;-1.03;93.35;102232.06;5002071;28;904;-82
2021/01/10 06:14:26;;;;;;;;;;;;;;;-0.99;93.47;102234.06;5001503;28;841;-82
2021/01/10 06:16:57;;;;;;;;;;;;;;;-0.93;93.52;102234.19;5001001;28;1297;-82
2021/01/10 06:19:27;;;;;;;;;;;;;;;-0.85;93.58;102231.13;5000514;28;1878;-82
2021/01/10 06:21:59;;;;;;;;;;;;;;;-0.81;92.90;102230.44;5000917;28;1902;-81
2021/01/10 06:24:32;;;;;;;;;;;;;;;-0.78;92.89;102230.00;5001269;28;834;-82
2021/01/10 06:27:03;;;;;;;;;;;;;;;-0.74;92.94;102234.91;5001248;28;1649;-82
2021/01/10 06:29:38;;;;;;;;;;;;;;;-0.71;92.53;102226.31;5002068;28;1012;-82
2021/01/10 06:32:09;;;;;;;;;;;;;;;-0.68;92.38;102228.56;4999873;28;1594;-81
2021/01/10 06:34:38;;;;;;;;;;;;;;;-0.66;92.36;102223.72;5000913;28;1728;-82
2021/01/10 06:37:07;;;;;;;;;;;;;;;-0.65;92.68;102226.22;5000562;28;1420;-81
2021/01/10 06:39:38;;;;;;;;;;;;;;;-0.64;92.60;102227.03;5001880;28;833;-81
2021/01/10 06:42:08;;;;;;;;;;;;;;;-0.62;92.45;102231.19;5000837;28;1905;-82
2021/01/10 06:44:36;;;;;;;;;;;;;;;-0.58;92.26;102232.34;5001597;28;840;-82
2021/01/10 06:47:03;;;;;;;;;;;;;;;-0.60;92.03;102239.91;4999286;28;1578;-83
2021/01/10 06:49:28;;;;;;;;;;;;;;;-0.57;92.39;102234.03;5001785;28;916;-82
2021/01/10 06:51:57;;;;;;;;;;;;;;;-0.54;92.39;102238.13;5001246;28;1846;-82
2021/01/10 06:54:23;;;;;;;;;;;;;;;-0.53;92.36;102239.81;5002129;28;826;-82
2021/01/10 06:56:51;;;;;;;;;;;;;;;-0.51;91.79;102240.38;5002107;28;1004;-82
2021/01/10 06:59:20;;;;;;;;;;;;;;;-0.49;91.88;102246.41;5001121;28;1362;-82
2021/01/10 07:01:48;;;;;;;;;;;;;;;-0.48;91.74;102236.41;5001631;28;1895;-82
2021/01/10 07:04:22;;;;;;;;;;;;;;;-0.51;91.72;102229.53;5001923;28;1602;-81
2021/01/10 07:06:52;;;;;;;;;;;;;;;-0.49;92.35;102232.00;5001719;28;1610;-81
2021/01/10 07:09:20;;;;;;;;;;;;;;;-0.51;91.89;102226.81;5001225;28;1530;-82
2021/01/10 07:11:46;;;;;;;;;;;;;;;-0.50;91.79;102233.91;5001298;28;984;-82
2021/01/10 07:14:12;;;;;;;;;;;;;;;-0.49;92.19;102235.53;5000689;28;1063;-82
2021/01/10 07:16:41;;;;;;;;;;;;;;;-0.50;92.28;102242.06;5000914;28;1468;-83
2021/01/10 07:19:08;;;;;;;;;;;;;;;-0.52;92.26;102235.19;4999755;28;1429;-82
2021/01/10 07:21:46;;;;;;;;;;;;;;;-0.58;92.53;102236.97;5000101;28;1744;-82
2021/01/10 07:24:20;;;;;;;;;;;;;;;-0.62;92.30;102244.75;5000958;28;1044;-82
2021/01/10 07:26:50;;;;;;;;;;;;;;;-0.61;92.61;102243.66;5000877;28;842;-82
2021/01/10 07:29:24;;;;;;;;;;;;;;;-0.60;92.80;102253.47;5000351;28;1610;-82
2021/01/10 07:31:57;;;;;;;;;;;;;;;-0.66;92.63;102251.72;4999898;28;1265;-82
2021/01/10 07:34:23;;;;;;;;;;;;;;;-0.64;92.72;102249.59;4999822;28;1661;-82
2021/01/10 07:36:54;;;;;;;;;;;;;;;-0.73;93.02;102240.13;5000654;28;1119;-82
2021/01/10 07:39:22;;;;;;;;;;;;;;;-0.66;92.75;102259.84;5000199;28;1440;-82
2021/01/10 07:41:47;;;;;;;;;;;;;;;-0.65;92.84;102250.63;4999665;28;1887;-82
2021/01/10 07:44:17;;;;;;;;;;;;;;;-0.64;93.06;102246.88;5003165;28;917;-82
2021/01/10 07:46:59;;;;;;;;;;;;;;;-0.63;92.43;102243.09;5002426;28;861;-82
2021/01/10 07:49:30;;;;;;;;;;;;;;;-0.63;92.94;102247.69;4998629;28;2453;-82
2021/01/10 07:51:55;;;;;;;;;;;;;;;-0.61;92.95;102257.25;5000222;28;842;-83
2021/01/10 07:54:53;;;;;;;;;;;;;;;-0.57;92.88;102246.78;4999454;28;1442;-82
2021/01/10 07:57:33;;;;;;;;;;;;;;;-0.57;92.44;102258.44;4999574;28;1448;-83
2021/01/10 08:00:17;;;;;;;;;;;;;;;-0.60;92.87;102258.09;5000523;28;889;-82
2021/01/10 08:02:51;;;;;;;;;;;;;;;-0.59;92.50;102260.56;4999556;28;1906;-82
2021/01/10 08:05:22;;;;;;;;;;;;;;;-0.58;91.96;102264.09;4999617;28;1368;-83
2021/01/10 08:07:55;;;;;;;;;;;;;;;-0.66;91.82;102257.13;4998941;28;1295;-82
2021/01/10 08:10:21;;;;;;;;;;;;;;;-0.70;92.38;102255.13;4999814;28;880;-83
2021/01/10 08:12:47;;;;;;;;;;;;;;;-0.74;92.35;102259.34;4999855;28;1261;-82
2021/01/10 08:15:13;;;;;;;;;;;;;;;-0.76;92.47;102265.84;4999700;28;818;-82
2021/01/10 08:17:40;;;;;;;;;;;;;;;-0.73;92.53;102266.44;4998979;28;1590;-82
2021/01/10 08:20:08;;;;;;;;;;;;;;;-0.69;92.93;102264.88;4995964;28;1484;-82
2021/01/10 08:22:33;;;;;;;;;;;;;;;-0.67;92.54;102266.31;4980479;28;1902;-83
2021/01/10 08:25:03;;;;;;;;;;;;;;;-0.65;92.71;102268.81;4980564;28;1396;-82
2021/01/10 08:27:29;;;;;;;;;;;;;;;-0.63;92.32;102263.97;4978943;28;1315;-82
2021/01/10 08:29:55;;;;;;;;;;;;;;;-0.54;92.56;102267.16;4981936;28;1850;-82
2021/01/10 08:32:21;;;;;;;;;;;;;;;-0.59;92.04;102263.28;4999349;28;1653;-83
2021/01/10 08:34:47;;;;;;;;;;;;;;;-0.57;91.75;102265.75;4999353;28;1408;-82
2021/01/10 08:37:14;;;;;;;;;;;;;;;-0.56;91.64;102267.41;4998972;28;1373;-82
2021/01/10 08:39:40;;;;;;;;;;;;;;;-0.51;91.59;102258.56;4999912;28;901;-82
2021/01/10 08:42:05;;;;;;;;;;;;;;;-0.53;91.28;102266.94;5000199;28;1951;-83
2021/01/10 08:44:30;;;;;;;;;;;;;;;-0.50;91.79;102269.19;4999237;28;1300;-83
2021/01/10 08:46:56;;;;;;;;;;;;;;;-0.49;91.35;102278.16;4999716;28;841;-82
2021/01/10 08:49:25;;;;;;;;;;;;;;;-0.41;91.20;102277.81;4998930;28;1595;-82
2021/01/10 08:51:51;;;;;;;;;;;;;;;-0.46;90.94;102266.84;4999440;28;895;-82
2021/01/10 08:54:27;;;;;;;;;;;;;;;-0.44;91.04;102270.94;4998901;28;1780;-82
2021/01/10 08:56:57;;;;;;;;;;;;;;;-0.43;91.32;102269.09;4999115;28;1302;-83
2021/01/10 08:59:23;;;;;;;;;;;;;;;-0.38;90.92;102267.31;4998718;28;1602;-82
2021/01/10 09:01:49;;;;;;;;;;;;;;;-0.26;90.97;102267.31;4999687;28;1895;-82
2021/01/10 09:04:16;;;;;;;;;;;;;;;-0.21;90.54;102270.16;4999764;28;1657;-82
2021/01/10 09:07:05;;;;;;;;;;;;;;;-0.16;89.96;102263.19;4999484;28;992;-82
2021/01/10 09:09:30;;;;;;;;;;;;;;;-0.13;89.78;102262.72;4998946;28;1292;-82
2021/01/10 09:12:20;;;;;;;;;;;;;;;-0.15;89.88;102259.41;4998448;28;1825;-82
2021/01/10 09:14:49;;;;;;;;;;;;;;;-0.07;90.06;102275.31;4999706;28;818;-82
2021/01/10 09:17:20;;;;;;;;;;;;;;;-0.05;89.59;102270.50;4998828;28;1817;-82
2021/01/10 09:19:51;;;;;;;;;;;;;;;-0.09;88.99;102274.75;4999188;28;909;-83
2021/01/10 09:22:17;;;;;;;;;;;;;;;-0.07;89.37;102278.88;4999766;28;1911;-82
2021/01/10 09:24:43;;;;;;;;;;;;;;;-0.04;89.50;102272.13;5000211;28;1392;-82
2021/01/10 09:27:10;;;;;;;;;;;;;;;0.18;89.39;102272.34;5000578;28;1333;-82
2021/01/10 09:29:36;;;;;;;;;;;;;;;0.24;88.05;102274.09;5001261;28;834;-82
2021/01/10 09:32:01;;;;;;;;;;;;;;;0.33;88.06;102269.16;5000555;28;1625;-82
2021/01/10 09:34:27;;;;;;;;;;;;;;;0.30;87.40;102275.06;5000607;28;1566;-81
2021/01/10 09:37:06;;;;;;;;;;;;;;;0.24;88.26;102268.66;4998802;28;893;-82
2021/01/10 09:39:42;;;;;;;;;;;;;;;0.44;87.64;102268.28;4997471;28;1562;-82
2021/01/10 09:42:07;;;;;;;;;;;;;;;0.54;87.11;102265.78;4999041;28;1902;-82
2021/01/10 09:44:33;;;;;;;;;;;;;;;0.71;86.53;102263.13;5000764;28;1783;-82
2021/01/10 09:46:59;;;;;;;;;;;;;;;0.70;86.67;102266.06;4999826;28;1567;-81
2021/01/10 09:49:34;;;;;;;;;;;;;;;1.10;85.52;102266.00;5000735;28;1497;-82
2021/01/10 09:52:02;;;;;;;;;;;;;;;1.58;82.68;102274.69;5001346;28;1570;-81
2021/01/10 09:54:29;;;;;;;;;;;;;;;1.75;81.75;102266.50;5001102;28;995;-82
2021/01/10 09:56:59;;;;;;;;;;;;;;;1.88;81.97;102268.06;5003037;28;930;-82
2021/01/10 09:59:41;;;;;;;;;;;;;;;2.20;80.72;102264.69;5005461;28;1322;-83
2021/01/10 10:02:12;;;;;;;;;;;;;;;2.37;80.33;102267.34;5004366;28;1959;-82
2021/01/10 10:04:37;;;;;;;;;;;;;;;2.28;79.09;102266.97;5004344;28;1019;-82
2021/01/10 10:07:04;;;;;;;;;;;;;;;2.15;79.77;102267.34;5002261;28;1720;-82
2021/01/10 10:09:49;;;;;;;;;;;;;;;2.18;79.34;102270.41;5004275;28;817;-82
2021/01/10 10:12:15;;;;;;;;;;;;;;;1.88;80.20;102257.16;5004119;28;791;-83
2021/01/10 10:14:53;;;;;;;;;;;;;;;2.39;78.93;102259.75;5005312;28;1275;-84
2021/01/10 10:17:20;;;;;;;;;;;;;;;2.53;78.65;102255.56;5006540;28;1326;-84
2021/01/10 10:19:46;;;;;;;;;;;;;;;2.18;79.48;102262.22;5006564;28;1554;-83
2021/01/10 10:22:26;;;;;;;;;;;;;;;1.94;80.58;102256.16;5006301;28;1894;-83
2021/01/10 10:24:53;;;;;;;;;;;;;;;1.96;80.54;102247.75;5003863;28;1531;-83
2021/01/10 10:27:18;;;;;;;;;;;;;;;1.99;80.79;102249.94;5003033;28;1330;-83
2021/01/10 10:29:44;;;;;;;;;;;;;;;2.11;80.17;102233.50;5004966;28;983;-83
2021/01/10 10:32:10;;;;;;;;;;;;;;;1.93;80.53;102245.53;5002044;28;1790;-83
2021/01/10 10:34:36;;;;;;;;;;;;;;;2.03;80.02;102241.03;5004685;28;1090;-83
2021/01/10 10:37:03;;;;;;;;;;;;;;;2.04;79.17;102239.13;5003396;28;1586;-83
2021/01/10 10:39:28;;;;;;;;;;;;;;;1.94;80.11;102241.69;5003969;28;864;-83
2021/01/10 10:41:53;;;;;;;;;;;;;;;2.01;79.99;102242.38;5004662;28;1895;-84
2021/01/10 10:44:19;;;;;;;;;;;;;;;2.11;79.63;102245.22;5003442;28;1359;-83
2021/01/10 10:46:45;;;;;;;;;;;;;;;2.16;79.44;102241.72;5004285;28;1594;-84
2021/01/10 10:49:11;;;;;;;;;;;;;;;2.23;78.88;102231.47;5002171;28;1377;-83
2021/01/10 10:51:37;;;;;;;;;;;;;;;2.30;78.19;102234.00;5004268;28;1283;-84
2021/01/10 10:54:03;;;;;;;;;;;;;;;2.42;77.71;102234.69;5003038;28;794;-83
2021/01/10 10:56:36;;;;;;;;;;;;;;;2.45;77.34;102237.72;5002008;28;1594;-80
2021/01/10 10:59:02;;;;;;;;;;;;;;;2.94;75.98;102236.06;4999575;28;1411;-80
2021/01/10 11:01:36;;;;;;;;;;;;;;;3.35;74.13;102236.44;5002465;28;862;-81
2021/01/10 11:04:02;;;;;;;;;;;;;;;3.78;72.17;102226.34;5002358;28;1981;-81
2021/01/10 11:06:27;;;;;;;;;;;;;;;4.54;69.95;102210.56;5003463;28;1039;-81
2021/01/10 11:08:52;;;;;;;;;;;;;;;4.79;68.86;102227.03;5001436;28;1303;-81
2021/01/10 11:11:18;;;;;;;;;;;;;;;4.94;68.43;102214.47;5002011;28;1657;-81
2021/01/10 11:13:43;;;;;;;;;;;;;;;4.55;68.95;102223.97;5002588;28;1043;-81
2021/01/10 11:16:10;;;;;;;;;;;;;;;4.48;70.32;102223.38;5001212;28;893;-81
2021/01/10 11:18:35;;;;;;;;;;;;;;;4.30;70.64;102228.25;5000910;28;1314;-81
2021/01/10 11:21:00;;;;;;;;;;;;;;;4.08;70.88;102224.88;5002067;28;988;-81
2021/01/10 11:23:25;;;;;;;;;;;;;;;4.71;69.39;102222.09;5002337;28;1910;-82
2021/01/10 11:25:52;;;;;;;;;;;;;;;4.42;69.79;102217.09;5000152;28;1519;-81
2021/01/10 11:28:17;;;;;;;;;;;;;;;4.38;70.14;102209.69;4993301;28;1512;-81
2021/01/10 11:30:43;;;;;;;;;;;;;;;5.03;68.26;102213.66;5001230;28;1424;-81
2021/01/10 11:33:08;;;;;;;;;;;;;;;5.01;67.35;102210.38;5001977;28;1408;-81
2021/01/10 11:35:33;;;;;;;;;;;;;;;4.83;69.07;102206.25;5001069;28;956;-82
2021/01/10 11:37:58;;;;;;;;;;;;;;;4.39;69.15;102206.69;5000738;28;1457;-81
2021/01/10 11:40:24;;;;;;;;;;;;;;;4.17;69.61;102204.16;5000381;28;1261;-81
2021/01/10 11:42:49;;;;;;;;;;;;;;;3.47;71.43;102203.47;5001384;28;1894;-81
2021/01/10 11:45:15;;;;;;;;;;;;;;;2.86;74.27;102201.91;5001100;28;935;-81
2021/01/10 11:47:40;;;;;;;;;;;;;;;2.62;75.18;102204.09;5001699;28;1417;-81
2021/01/10 11:50:06;;;;;;;;;;;;;;;2.52;75.79;102202.09;5000477;28;957;-81
2021/01/10 11:52:31;;;;;;;;;;;;;;;2.71;75.91;102196.28;4999029;28;1568;-80
2021/01/10 11:54:56;;;;;;;;;;;;;;;3.15;73.70;102198.84;5000473;28;802;-81
2021/01/10 11:57:22;;;;;;;;;;;;;;;3.78;71.75;102190.84;4999114;28;1381;-81
2021/01/10 11:59:47;;;;;;;;;;;;;;;4.83;68.04;102189.84;5000621;28;1182;-81
2021/01/10 12:02:12;;;;;;;;;;;;;;;7.07;61.21;102176.75;5000110;28;1973;-80
2021/01/10 12:04:38;;;;;;;;;;;;;;;6.94;60.94;102178.22;5000607;28;1447;-82
2021/01/10 12:07:03;;;;;;;;;;;;;;;5.93;62.95;102173.78;5000758;28;1338;-81
2021/01/10 12:09:29;;;;;;;;;;;;;;;4.98;65.62;102172.56;4999277;28;1415;-80
2021/01/10 12:11:54;;;;;;;;;;;;;;;4.56;67.99;102168.16;5001966;28;876;-79
2021/01/10 12:14:19;;;;;;;;;;;;;;;4.59;68.04;102169.56;5001361;28;1051;-80
2021/01/10 12:16:45;;;;;;;;;;;;;;;4.68;67.36;102166.00;5002858;28;912;-80
2021/01/10 12:19:10;;;;;;;;;;;;;;;4.77;67.35;102158.06;5000194;28;1592;-80
2021/01/10 12:21:35;;;;;;;;;;;;;;;4.78;67.25;102151.50;5000520;28;873;-80
2021/01/10 12:24:01;;;;;;;;;;;;;;;4.84;67.39;102147.66;4999744;28;1906;-80
2021/01/10 12:26:26;;;;;;;;;;;;;;;4.84;67.32;102153.13;4999692;28;810;-81
2021/01/10 12:28:51;;;;;;;;;;;;;;;4.65;68.54;102146.56;4999365;28;1397;-80
2021/01/10 12:31:17;;;;;;;;;;;;;;;4.73;67.56;102143.28;5001059;28;1029;-80
2021/01/10 12:33:44;;;;;;;;;;;;;;;4.97;66.42;102146.31;5001226;28;880;-81
2021/01/10 12:36:10;;;;;;;;;;;;;;;6.00;62.97;102138.72;5001152;28;1237;-80
2021/01/10 12:38:37;;;;;;;;;;;;;;;6.96;60.48;102135.63;5002693;28;1294;-80
2021/01/10 12:41:03;;;;;;;;;;;;;;;7.09;60.05;102125.88;5001851;28;1270;-80
2021/01/10 12:43:29;;;;;;;;;;;;;;;6.47;60.88;102127.47;4998496;28;1894;-79
2021/01/10 12:45:54;;;;;;;;;;;;;;;5.79;63.25;102126.16;4995717;28;865;-78
2021/01/10 12:48:20;;;;;;;;;;;;;;;5.70;62.87;102120.44;4995209;28;1381;-77
2021/01/10 12:50:46;;;;;;;;;;;;;;;6.07;61.95;102124.69;4995502;28;1258;-78
2021/01/10 12:53:12;;;;;;;;;;;;;;;6.45;60.63;102119.53;4995706;28;903;-78
2021/01/10 12:55:37;;;;;;;;;;;;;;;7.10;59.65;102111.06;4996221;28;1044;-78
2021/01/10 12:58:03;;;;;;;;;;;;;;;8.29;55.56;102102.25;4994910;28;1302;-77